Masterson, Texas
Current Conditions -  °F | °C
As of 6:55 PM on Wednesday 17 Dec 2014 (Local Time) from KDUX Reporting Station
Clear Clear  
Wind Chill: 26°   Ceiling: Unl
Heat Index: 35°   Visibility: 10mi
Dew Point: 32°   Wind: 13mph
Humidity: 89%   Direction: 130°SE
Pressure: 29.93"   Gusts: NA
Location:  35.64°N, 101.96°W
Report Text: KDUX 180055Z AUTO 13011KT 10SM CLR 02/00 A2993 RMK AO2 T00160000
Loading
Personal Weather Stations






























Interactive Weather Map New forecast layout! Learn more

10-Day Weather Forecast

Advertisements
Track Severe Weather on mobile